Terminal Aerodrome Forecast
Issued by NWS Quad Cities IA IL

Home | Current Version | Previous Version | Text Only | Print | Product List | Glossary On
Versions: 1 2 3 4 5 6 7 8 9 10 11 12 13 14 15 16
000
FTUS43 KDVN 271700
TAFDBQ
TAF
KDBQ 271720Z 2718/2818 22015G22KT P6SM SCT030
     FM272300 24007KT P6SM BKN050
      TEMPO 2723/2802 6SM -SHRA
     FM280200 28012KT P6SM BKN050
     FM281500 29016G25KT P6SM SCT050=

USA.gov is the U.S. government's official web portal to all federal, state and local government web resources and services.